Terminal Aerodrome Forecast
Issued by NWS

Home | Current Version | Previous Version | Text Only | Print | Product List | Glossary On
Versions: 1 2 3 4 5 6 7 8 9 10 11 12 13 14 15 16 17 18 19 20 21
000
FTUS43 KDTX 180130 AAA
TAFMBS
TAF AMD
KMBS 180130Z 1802/1824 10007KT 5SM BR OVC008
     FM180700 23005KT 1SM BR OVC003
     FM181400 23008KT 2SM BR OVC006
     FM181700 23010KT 6SM BR OVC008=

USA.gov is the U.S. government's official web portal to all federal, state and local government web resources and services.